Time;durP1;ratioP1;P1;durP2;ratioP2;P2;SDS_P1;SDS_P2;PMS_P1;PMS_P2;Temp;Humidity;BMP_temperature;BMP_pressure;BME280_temperature;BME280_humidity;BME280_pressure;Samples;Min_cycle;Max_cycle;Signal;HPM_P1;HPM_P2
2019/07/10 00:01:02;;;;;;;4.9;1.3;;;;;;;;;;;;;
2019/07/10 00:03:25;;;;;;;4.9;1.3;;;;;;;;;;;;;
2019/07/10 00:05:50;;;;;;;4.4;1.2;;;;;;;;;;;;;
2019/07/10 00:08:15;;;;;;;3.2;1.3;;;;;;;;;;;;;
2019/07/10 00:10:40;;;;;;;2.8;1.4;;;;;;;;;;;;;
2019/07/10 00:13:05;;;;;;;2.7;1.4;;;;;;;;;;;;;
2019/07/10 00:15:30;;;;;;;2;1;;;;;;;;;;;;;
2019/07/10 00:17:55;;;;;;;4.5;1.2;;;;;;;;;;;;;
2019/07/10 00:20:20;;;;;;;2.5;1.2;;;;;;;;;;;;;
2019/07/10 00:22:45;;;;;;;2.7;1.2;;;;;;;;;;;;;
2019/07/10 00:25:10;;;;;;;2.3;1.1;;;;;;;;;;;;;
2019/07/10 00:27:36;;;;;;;2.3;1.1;;;;;;;;;;;;;
2019/07/10 00:30:01;;;;;;;3.6;1.1;;;;;;;;;;;;;
2019/07/10 00:32:26;;;;;;;2.3;1;;;;;;;;;;;;;
2019/07/10 00:34:51;;;;;;;3.6;1;;;;;;;;;;;;;
2019/07/10 00:37:16;;;;;;;1.5;0.9;;;;;;;;;;;;;
2019/07/10 00:39:41;;;;;;;2.4;1.1;;;;;;;;;;;;;
2019/07/10 00:42:06;;;;;;;2.7;0.9;;;;;;;;;;;;;
2019/07/10 00:44:31;;;;;;;3.2;1;;;;;;;;;;;;;
2019/07/10 00:46:56;;;;;;;4.1;1.1;;;;;;;;;;;;;
2019/07/10 00:49:21;;;;;;;2.4;1.1;;;;;;;;;;;;;
2019/07/10 00:51:46;;;;;;;4.2;1.1;;;;;;;;;;;;;
2019/07/10 00:54:12;;;;;;;2.3;0.9;;;;;;;;;;;;;
2019/07/10 00:56:37;;;;;;;2.7;1.1;;;;;;;;;;;;;
2019/07/10 00:59:02;;;;;;;3.5;1;;;;;;;;;;;;;
2019/07/10 01:01:27;;;;;;;2.7;0.9;;;;;;;;;;;;;
2019/07/10 01:03:52;;;;;;;2.1;0.9;;;;;;;;;;;;;
2019/07/10 01:06:17;;;;;;;3;1;;;;;;;;;;;;;
2019/07/10 01:08:42;;;;;;;2.3;1;;;;;;;;;;;;;
2019/07/10 01:11:07;;;;;;;3.5;0.9;;;;;;;;;;;;;
2019/07/10 01:13:33;;;;;;;4.5;1;;;;;;;;;;;;;
2019/07/10 01:15:58;;;;;;;3.3;0.9;;;;;;;;;;;;;
2019/07/10 01:18:23;;;;;;;2.7;1;;;;;;;;;;;;;
2019/07/10 01:20:48;;;;;;;2.7;0.9;;;;;;;;;;;;;
2019/07/10 01:23:13;;;;;;;4.8;1.1;;;;;;;;;;;;;
2019/07/10 01:25:38;;;;;;;1.9;1.2;;;;;;;;;;;;;
2019/07/10 01:28:03;;;;;;;3.3;1.4;;;;;;;;;;;;;
2019/07/10 01:30:28;;;;;;;2.5;1;;;;;;;;;;;;;
2019/07/10 01:32:53;;;;;;;4.1;1.1;;;;;;;;;;;;;
2019/07/10 01:35:18;;;;;;;2.7;1.1;;;;;;;;;;;;;
2019/07/10 01:37:43;;;;;;;2.5;1;;;;;;;;;;;;;
2019/07/10 01:40:08;;;;;;;3.5;1.2;;;;;;;;;;;;;
2019/07/10 01:42:33;;;;;;;3.4;1.2;;;;;;;;;;;;;
2019/07/10 01:44:58;;;;;;;1.6;0.9;;;;;;;;;;;;;
2019/07/10 01:47:24;;;;;;;2.2;1.1;;;;;;;;;;;;;
2019/07/10 01:49:49;;;;;;;2.5;1.1;;;;;;;;;;;;;
2019/07/10 01:52:14;;;;;;;3.3;1.3;;;;;;;;;;;;;
2019/07/10 01:54:39;;;;;;;2.7;1.2;;;;;;;;;;;;;
2019/07/10 01:57:04;;;;;;;3.1;1.3;;;;;;;;;;;;;
2019/07/10 01:59:29;;;;;;;8.7;1.1;;;;;;;;;;;;;
2019/07/10 02:01:54;;;;;;;2.7;1.1;;;;;;;;;;;;;
2019/07/10 02:04:19;;;;;;;2.6;1.1;;;;;;;;;;;;;
2019/07/10 02:06:45;;;;;;;3;1.1;;;;;;;;;;;;;
2019/07/10 02:09:10;;;;;;;3.1;1.2;;;;;;;;;;;;;
2019/07/10 02:11:35;;;;;;;3.3;1.2;;;;;;;;;;;;;
2019/07/10 02:14:00;;;;;;;3.2;1.1;;;;;;;;;;;;;
2019/07/10 02:16:25;;;;;;;4.8;1.2;;;;;;;;;;;;;
2019/07/10 02:18:50;;;;;;;2.8;1.2;;;;;;;;;;;;;
2019/07/10 02:21:15;;;;;;;2.5;1.1;;;;;;;;;;;;;
2019/07/10 02:23:40;;;;;;;2.3;1.1;;;;;;;;;;;;;
2019/07/10 02:26:05;;;;;;;3.3;1.2;;;;;;;;;;;;;
2019/07/10 02:28:30;;;;;;;2.6;1.2;;;;;;;;;;;;;
2019/07/10 02:30:55;;;;;;;3;1.3;;;;;;;;;;;;;
2019/07/10 02:33:21;;;;;;;3.3;1.4;;;;;;;;;;;;;
2019/07/10 02:35:46;;;;;;;2.7;1.5;;;;;;;;;;;;;
2019/07/10 02:38:11;;;;;;;3.1;1.2;;;;;;;;;;;;;
2019/07/10 02:40:36;;;;;;;4;1.2;;;;;;;;;;;;;
2019/07/10 02:43:01;;;;;;;4;1.4;;;;;;;;;;;;;
2019/07/10 02:45:26;;;;;;;3.4;1.6;;;;;;;;;;;;;
2019/07/10 02:47:51;;;;;;;3.5;1.4;;;;;;;;;;;;;
2019/07/10 02:50:16;;;;;;;3.4;1.3;;;;;;;;;;;;;
2019/07/10 02:52:41;;;;;;;4.3;1.3;;;;;;;;;;;;;
2019/07/10 02:55:06;;;;;;;4;1.4;;;;;;;;;;;;;
2019/07/10 02:57:31;;;;;;;4;1.5;;;;;;;;;;;;;
2019/07/10 02:59:56;;;;;;;3.2;1.3;;;;;;;;;;;;;
2019/07/10 03:02:22;;;;;;;5.7;1.4;;;;;;;;;;;;;
2019/07/10 03:04:47;;;;;;;3.3;1.4;;;;;;;;;;;;;
2019/07/10 03:07:12;;;;;;;2.5;1.3;;;;;;;;;;;;;
2019/07/10 03:09:37;;;;;;;3.5;1.5;;;;;;;;;;;;;
2019/07/10 03:12:02;;;;;;;4.2;1.5;;;;;;;;;;;;;
2019/07/10 03:14:28;;;;;;;3;1.5;;;;;;;;;;;;;
2019/07/10 03:16:53;;;;;;;3.9;1.5;;;;;;;;;;;;;
2019/07/10 03:19:18;;;;;;;3.4;1.5;;;;;;;;;;;;;
2019/07/10 03:21:43;;;;;;;3.7;1.6;;;;;;;;;;;;;
2019/07/10 03:24:08;;;;;;;4;1.6;;;;;;;;;;;;;
2019/07/10 03:26:33;;;;;;;3.3;1.7;;;;;;;;;;;;;
2019/07/10 03:28:58;;;;;;;5.1;1.7;;;;;;;;;;;;;
2019/07/10 03:31:23;;;;;;;2.5;1.3;;;;;;;;;;;;;
2019/07/10 03:33:48;;;;;;;5.6;1.7;;;;;;;;;;;;;
2019/07/10 03:36:13;;;;;;;4;1.7;;;;;;;;;;;;;
2019/07/10 03:38:38;;;;;;;3.1;1.6;;;;;;;;;;;;;
2019/07/10 03:41:03;;;;;;;4.1;1.6;;;;;;;;;;;;;
2019/07/10 03:43:28;;;;;;;4;1.7;;;;;;;;;;;;;
2019/07/10 03:45:54;;;;;;;4.1;1.6;;;;;;;;;;;;;
2019/07/10 03:48:19;;;;;;;3.9;1.9;;;;;;;;;;;;;
2019/07/10 03:50:44;;;;;;;3.8;2.1;;;;;;;;;;;;;
2019/07/10 03:53:09;;;;;;;4.5;1.9;;;;;;;;;;;;;
2019/07/10 03:55:34;;;;;;;4.1;2;;;;;;;;;;;;;
2019/07/10 03:57:59;;;;;;;5.3;2.2;;;;;;;;;;;;;
2019/07/10 04:02:27;;;;;;;3.9;2;;;;;;;;;;;;;
2019/07/10 04:04:52;;;;;;;4.9;1.9;;;;;;;;;;;;;
2019/07/10 04:07:17;;;;;;;2.9;1.7;;;;;;;;;;;;;
2019/07/10 04:09:42;;;;;;;4.9;1.9;;;;;;;;;;;;;
2019/07/10 04:12:07;;;;;;;4.1;2.2;;;;;;;;;;;;;
2019/07/10 04:14:32;;;;;;;4.9;1.7;;;;;;;;;;;;;
2019/07/10 04:16:58;;;;;;;2.9;1.5;;;;;;;;;;;;;
2019/07/10 04:19:23;;;;;;;3.1;1.5;;;;;;;;;;;;;
2019/07/10 04:21:48;;;;;;;3.9;1.8;;;;;;;;;;;;;
2019/07/10 04:24:13;;;;;;;3.5;1.7;;;;;;;;;;;;;
2019/07/10 04:27:05;;;;;;;4.7;1.8;;;;;;;;;;;;;
2019/07/10 04:29:30;;;;;;;3.7;1.8;;;;;;;;;;;;;
2019/07/10 04:31:55;;;;;;;4.1;1.9;;;;;;;;;;;;;
2019/07/10 04:34:20;;;;;;;2.6;1.8;;;;;;;;;;;;;
2019/07/10 04:36:46;;;;;;;6.2;2.5;;;;;;;;;;;;;
2019/07/10 04:39:11;;;;;;;4.9;2.8;;;;;;;;;;;;;
2019/07/10 04:41:36;;;;;;;4.7;2.5;;;;;;;;;;;;;
2019/07/10 04:44:01;;;;;;;4.4;2.2;;;;;;;;;;;;;
2019/07/10 04:46:26;;;;;;;7.5;2.3;;;;;;;;;;;;;
2019/07/10 04:48:51;;;;;;;3.8;2;;;;;;;;;;;;;
2019/07/10 04:51:16;;;;;;;4.4;2.3;;;;;;;;;;;;;
2019/07/10 04:53:42;;;;;;;5.7;2.5;;;;;;;;;;;;;
2019/07/10 04:56:12;;;;;;;5.6;2.3;;;;;;;;;;;;;
2019/07/10 04:58:38;;;;;;;5.6;2.2;;;;;;;;;;;;;
2019/07/10 05:01:03;;;;;;;3.1;2;;;;;;;;;;;;;
2019/07/10 05:03:28;;;;;;;5.7;3.2;;;;;;;;;;;;;
2019/07/10 05:05:53;;;;;;;6.7;3;;;;;;;;;;;;;
2019/07/10 05:08:18;;;;;;;5.3;3.4;;;;;;;;;;;;;
2019/07/10 05:10:43;;;;;;;6.6;2.9;;;;;;;;;;;;;
2019/07/10 05:13:08;;;;;;;9.2;3.2;;;;;;;;;;;;;
2019/07/10 05:15:33;;;;;;;6.5;2.7;;;;;;;;;;;;;
2019/07/10 05:17:58;;;;;;;7.5;3.2;;;;;;;;;;;;;
2019/07/10 05:20:23;;;;;;;6.8;3;;;;;;;;;;;;;
2019/07/10 05:22:48;;;;;;;4.8;2.5;;;;;;;;;;;;;
2019/07/10 05:25:13;;;;;;;6.6;2.2;;;;;;;;;;;;;
2019/07/10 05:27:39;;;;;;;4.4;2.3;;;;;;;;;;;;;
2019/07/10 05:30:04;;;;;;;4.9;2;;;;;;;;;;;;;
2019/07/10 05:32:29;;;;;;;4.3;2.1;;;;;;;;;;;;;
2019/07/10 05:34:54;;;;;;;5.5;2.2;;;;;;;;;;;;;
2019/07/10 05:37:19;;;;;;;4.3;2.1;;;;;;;;;;;;;
2019/07/10 05:39:44;;;;;;;4.1;2.2;;;;;;;;;;;;;
2019/07/10 05:42:09;;;;;;;4.6;2.3;;;;;;;;;;;;;
2019/07/10 05:44:34;;;;;;;4.5;2.3;;;;;;;;;;;;;
2019/07/10 05:46:59;;;;;;;4.9;2.3;;;;;;;;;;;;;
2019/07/10 05:49:24;;;;;;;3.9;2;;;;;;;;;;;;;
2019/07/10 05:51:50;;;;;;;5;2.2;;;;;;;;;;;;;
2019/07/10 05:54:15;;;;;;;4.2;1.9;;;;;;;;;;;;;
2019/07/10 05:56:40;;;;;;;3.6;1.8;;;;;;;;;;;;;
2019/07/10 05:59:05;;;;;;;5.5;2;;;;;;;;;;;;;
2019/07/10 06:01:30;;;;;;;3;1.6;;;;;;;;;;;;;
2019/07/10 06:03:55;;;;;;;3.5;1.9;;;;;;;;;;;;;
2019/07/10 06:06:20;;;;;;;3.9;1.7;;;;;;;;;;;;;
2019/07/10 06:08:45;;;;;;;5;1.6;;;;;;;;;;;;;
2019/07/10 06:11:10;;;;;;;4.7;1.7;;;;;;;;;;;;;
2019/07/10 06:13:35;;;;;;;5;1.6;;;;;;;;;;;;;
2019/07/10 06:16:00;;;;;;;4.8;1.8;;;;;;;;;;;;;
2019/07/10 06:18:25;;;;;;;4.3;1.7;;;;;;;;;;;;;
2019/07/10 06:20:51;;;;;;;2.8;1.6;;;;;;;;;;;;;
2019/07/10 06:23:16;;;;;;;3.4;1.4;;;;;;;;;;;;;
2019/07/10 06:25:41;;;;;;;3.1;1.7;;;;;;;;;;;;;
2019/07/10 06:28:06;;;;;;;3.6;1.6;;;;;;;;;;;;;
2019/07/10 06:30:31;;;;;;;4.2;1.6;;;;;;;;;;;;;
2019/07/10 06:32:56;;;;;;;2.6;1.6;;;;;;;;;;;;;
2019/07/10 06:35:21;;;;;;;5.9;2.1;;;;;;;;;;;;;
2019/07/10 06:37:47;;;;;;;5.5;1.6;;;;;;;;;;;;;
2019/07/10 06:40:12;;;;;;;2.4;1.6;;;;;;;;;;;;;
2019/07/10 06:42:37;;;;;;;3.9;1.7;;;;;;;;;;;;;
2019/07/10 06:45:02;;;;;;;3.1;1.9;;;;;;;;;;;;;
2019/07/10 06:47:27;;;;;;;2.9;1.8;;;;;;;;;;;;;
2019/07/10 06:49:52;;;;;;;4.9;1.8;;;;;;;;;;;;;
2019/07/10 06:52:17;;;;;;;3.4;1.6;;;;;;;;;;;;;
2019/07/10 06:54:42;;;;;;;4.1;1.6;;;;;;;;;;;;;
2019/07/10 06:57:07;;;;;;;6.1;1.8;;;;;;;;;;;;;
2019/07/10 06:59:32;;;;;;;4.9;1.9;;;;;;;;;;;;;
2019/07/10 07:01:58;;;;;;;3.7;1.7;;;;;;;;;;;;;
2019/07/10 07:04:23;;;;;;;5.1;1.4;;;;;;;;;;;;;
2019/07/10 07:06:48;;;;;;;3.3;1.7;;;;;;;;;;;;;
2019/07/10 07:09:13;;;;;;;3.5;1.6;;;;;;;;;;;;;
2019/07/10 07:11:38;;;;;;;5;1.5;;;;;;;;;;;;;
2019/07/10 07:14:03;;;;;;;5.4;1.5;;;;;;;;;;;;;
2019/07/10 07:16:28;;;;;;;3;1.4;;;;;;;;;;;;;
2019/07/10 07:18:53;;;;;;;4.8;1.4;;;;;;;;;;;;;
2019/07/10 07:21:18;;;;;;;3.2;1.5;;;;;;;;;;;;;
2019/07/10 07:23:43;;;;;;;5.6;1.4;;;;;;;;;;;;;
2019/07/10 07:26:08;;;;;;;4.2;1.5;;;;;;;;;;;;;
2019/07/10 07:28:33;;;;;;;3.3;1.4;;;;;;;;;;;;;
2019/07/10 07:30:58;;;;;;;2.8;1.4;;;;;;;;;;;;;
2019/07/10 07:33:24;;;;;;;3.6;1.5;;;;;;;;;;;;;
2019/07/10 07:35:49;;;;;;;2.7;1.3;;;;;;;;;;;;;
2019/07/10 07:38:14;;;;;;;3;1.4;;;;;;;;;;;;;
2019/07/10 07:40:39;;;;;;;2.4;1.3;;;;;;;;;;;;;
2019/07/10 07:43:04;;;;;;;2.5;1.1;;;;;;;;;;;;;
2019/07/10 07:45:29;;;;;;;3;1.2;;;;;;;;;;;;;
2019/07/10 07:47:54;;;;;;;4;1.1;;;;;;;;;;;;;
2019/07/10 07:50:19;;;;;;;2.6;1.1;;;;;;;;;;;;;
2019/07/10 07:52:44;;;;;;;4.2;1.4;;;;;;;;;;;;;
2019/07/10 07:55:09;;;;;;;2.7;0.9;;;;;;;;;;;;;
2019/07/10 07:57:34;;;;;;;2.5;1;;;;;;;;;;;;;
2019/07/10 07:59:59;;;;;;;1.6;0.7;;;;;;;;;;;;;
2019/07/10 08:02:25;;;;;;;2.2;0.7;;;;;;;;;;;;;
2019/07/10 08:04:50;;;;;;;2.6;0.7;;;;;;;;;;;;;
2019/07/10 08:07:15;;;;;;;1.5;0.7;;;;;;;;;;;;;
2019/07/10 08:09:40;;;;;;;2.5;0.9;;;;;;;;;;;;;
2019/07/10 08:12:05;;;;;;;2.8;0.8;;;;;;;;;;;;;
2019/07/10 08:14:30;;;;;;;2.6;1;;;;;;;;;;;;;
2019/07/10 08:16:55;;;;;;;1.7;0.8;;;;;;;;;;;;;
2019/07/10 08:19:20;;;;;;;2.4;0.9;;;;;;;;;;;;;
2019/07/10 08:21:45;;;;;;;2.1;0.9;;;;;;;;;;;;;
2019/07/10 08:24:10;;;;;;;3.6;1;;;;;;;;;;;;;
2019/07/10 08:26:35;;;;;;;2.1;0.8;;;;;;;;;;;;;
2019/07/10 08:29:01;;;;;;;2.9;0.8;;;;;;;;;;;;;
2019/07/10 08:31:26;;;;;;;2.3;0.9;;;;;;;;;;;;;
2019/07/10 08:33:51;;;;;;;3.6;1;;;;;;;;;;;;;
2019/07/10 08:36:16;;;;;;;1.8;0.9;;;;;;;;;;;;;
2019/07/10 08:38:41;;;;;;;3.5;1;;;;;;;;;;;;;
2019/07/10 08:41:06;;;;;;;2.3;1;;;;;;;;;;;;;
2019/07/10 08:43:31;;;;;;;2.9;1.1;;;;;;;;;;;;;
2019/07/10 08:45:56;;;;;;;1.6;0.8;;;;;;;;;;;;;
2019/07/10 08:48:21;;;;;;;3.4;1;;;;;;;;;;;;;
2019/07/10 08:50:47;;;;;;;2.1;1;;;;;;;;;;;;;
2019/07/10 08:53:12;;;;;;;2.7;1.1;;;;;;;;;;;;;
2019/07/10 08:55:37;;;;;;;3.2;1;;;;;;;;;;;;;
2019/07/10 08:58:02;;;;;;;2.7;1.1;;;;;;;;;;;;;
2019/07/10 09:00:27;;;;;;;1.5;0.8;;;;;;;;;;;;;
2019/07/10 09:02:52;;;;;;;2.9;0.9;;;;;;;;;;;;;
2019/07/10 09:05:17;;;;;;;3.1;1;;;;;;;;;;;;;
2019/07/10 09:07:42;;;;;;;2.6;1;;;;;;;;;;;;;
2019/07/10 09:10:07;;;;;;;2.6;1.1;;;;;;;;;;;;;
2019/07/10 09:12:32;;;;;;;3.5;0.8;;;;;;;;;;;;;
2019/07/10 09:14:57;;;;;;;2.2;0.8;;;;;;;;;;;;;
2019/07/10 09:17:22;;;;;;;2.6;1.1;;;;;;;;;;;;;
2019/07/10 09:19:47;;;;;;;3.7;0.8;;;;;;;;;;;;;
2019/07/10 09:22:12;;;;;;;3.2;1;;;;;;;;;;;;;
2019/07/10 09:24:38;;;;;;;2.1;0.8;;;;;;;;;;;;;
2019/07/10 09:27:03;;;;;;;3.7;1;;;;;;;;;;;;;
2019/07/10 09:29:28;;;;;;;3.9;1.2;;;;;;;;;;;;;
2019/07/10 09:31:53;;;;;;;2.7;1;;;;;;;;;;;;;
2019/07/10 09:34:18;;;;;;;2;0.9;;;;;;;;;;;;;
2019/07/10 09:36:43;;;;;;;2.4;1;;;;;;;;;;;;;
2019/07/10 09:39:08;;;;;;;2.2;0.9;;;;;;;;;;;;;
2019/07/10 09:41:33;;;;;;;2.9;1;;;;;;;;;;;;;
2019/07/10 09:43:59;;;;;;;2.2;0.8;;;;;;;;;;;;;
2019/07/10 09:46:24;;;;;;;2.3;0.8;;;;;;;;;;;;;
2019/07/10 09:48:49;;;;;;;2.3;1.1;;;;;;;;;;;;;
2019/07/10 09:51:14;;;;;;;2.8;1.1;;;;;;;;;;;;;
2019/07/10 09:53:39;;;;;;;2.7;0.8;;;;;;;;;;;;;
2019/07/10 09:56:04;;;;;;;3;1.2;;;;;;;;;;;;;
2019/07/10 09:58:29;;;;;;;2.2;1;;;;;;;;;;;;;
2019/07/10 10:00:54;;;;;;;4.8;1.2;;;;;;;;;;;;;
2019/07/10 10:03:20;;;;;;;1.4;0.8;;;;;;;;;;;;;
2019/07/10 10:05:45;;;;;;;1.6;1;;;;;;;;;;;;;
2019/07/10 10:08:10;;;;;;;2.7;1;;;;;;;;;;;;;
2019/07/10 10:10:35;;;;;;;1.8;1;;;;;;;;;;;;;
2019/07/10 10:13:00;;;;;;;3.8;1.2;;;;;;;;;;;;;
2019/07/10 10:15:25;;;;;;;2.4;1.1;;;;;;;;;;;;;
2019/07/10 10:17:50;;;;;;;1.8;1.2;;;;;;;;;;;;;
2019/07/10 10:20:15;;;;;;;1.9;1;;;;;;;;;;;;;
2019/07/10 10:22:40;;;;;;;2.6;0.9;;;;;;;;;;;;;
2019/07/10 10:25:05;;;;;;;2.2;1;;;;;;;;;;;;;
2019/07/10 10:27:31;;;;;;;2.3;1.1;;;;;;;;;;;;;
2019/07/10 10:29:56;;;;;;;3.3;1.2;;;;;;;;;;;;;
2019/07/10 10:32:21;;;;;;;4.5;0.9;;;;;;;;;;;;;
2019/07/10 10:34:46;;;;;;;1.7;0.8;;;;;;;;;;;;;
2019/07/10 10:37:11;;;;;;;2.4;1.1;;;;;;;;;;;;;
2019/07/10 10:39:36;;;;;;;2.9;1.1;;;;;;;;;;;;;
2019/07/10 10:42:01;;;;;;;4.3;1.2;;;;;;;;;;;;;
2019/07/10 10:44:26;;;;;;;2.1;1;;;;;;;;;;;;;
2019/07/10 10:46:51;;;;;;;2.2;0.9;;;;;;;;;;;;;
2019/07/10 10:49:16;;;;;;;2;0.8;;;;;;;;;;;;;
2019/07/10 10:51:42;;;;;;;3;1.1;;;;;;;;;;;;;
2019/07/10 10:54:07;;;;;;;1.9;0.9;;;;;;;;;;;;;
2019/07/10 10:56:32;;;;;;;2.2;1;;;;;;;;;;;;;
2019/07/10 10:58:57;;;;;;;1.5;0.9;;;;;;;;;;;;;
2019/07/10 11:01:22;;;;;;;3.2;0.9;;;;;;;;;;;;;
2019/07/10 11:03:47;;;;;;;1.1;0.7;;;;;;;;;;;;;
2019/07/10 11:06:12;;;;;;;2.9;1.1;;;;;;;;;;;;;
2019/07/10 11:08:37;;;;;;;2.5;1;;;;;;;;;;;;;
2019/07/10 11:11:02;;;;;;;4.1;1;;;;;;;;;;;;;
2019/07/10 11:13:27;;;;;;;2.1;0.8;;;;;;;;;;;;;
2019/07/10 11:15:52;;;;;;;2.7;1.2;;;;;;;;;;;;;
2019/07/10 11:18:19;;;;;;;2.6;1;;;;;;;;;;;;;
2019/07/10 11:20:43;;;;;;;2.3;1.1;;;;;;;;;;;;;
2019/07/10 11:23:08;;;;;;;2.3;1;;;;;;;;;;;;;
2019/07/10 11:25:33;;;;;;;3;0.9;;;;;;;;;;;;;
2019/07/10 11:27:58;;;;;;;1.7;0.7;;;;;;;;;;;;;
2019/07/10 11:30:23;;;;;;;2.6;1;;;;;;;;;;;;;
2019/07/10 11:32:48;;;;;;;1.7;0.9;;;;;;;;;;;;;
2019/07/10 11:35:13;;;;;;;1.7;1;;;;;;;;;;;;;
2019/07/10 11:37:38;;;;;;;3.5;1.2;;;;;;;;;;;;;
2019/07/10 11:40:03;;;;;;;4.1;1.2;;;;;;;;;;;;;
2019/07/10 11:42:28;;;;;;;2.7;1.1;;;;;;;;;;;;;
2019/07/10 11:44:53;;;;;;;2.6;1.2;;;;;;;;;;;;;
2019/07/10 11:47:18;;;;;;;2.3;1;;;;;;;;;;;;;
2019/07/10 11:49:44;;;;;;;2;1;;;;;;;;;;;;;
2019/07/10 11:52:09;;;;;;;2.7;1;;;;;;;;;;;;;
2019/07/10 11:54:34;;;;;;;2.2;0.9;;;;;;;;;;;;;
2019/07/10 11:56:59;;;;;;;2;0.9;;;;;;;;;;;;;
2019/07/10 11:59:24;;;;;;;2.3;0.9;;;;;;;;;;;;;
2019/07/10 12:01:49;;;;;;;2.3;1;;;;;;;;;;;;;
2019/07/10 12:04:14;;;;;;;3.6;1;;;;;;;;;;;;;
2019/07/10 12:06:39;;;;;;;1.9;0.8;;;;;;;;;;;;;
2019/07/10 12:09:04;;;;;;;3.2;1.2;;;;;;;;;;;;;
2019/07/10 12:11:29;;;;;;;3.6;1.2;;;;;;;;;;;;;
2019/07/10 12:13:54;;;;;;;3.2;1;;;;;;;;;;;;;
2019/07/10 12:16:19;;;;;;;2.3;0.8;;;;;;;;;;;;;
2019/07/10 12:18:45;;;;;;;5.8;1.1;;;;;;;;;;;;;
2019/07/10 12:21:10;;;;;;;2.9;1.1;;;;;;;;;;;;;
2019/07/10 12:23:35;;;;;;;3;1;;;;;;;;;;;;;
2019/07/10 12:26:00;;;;;;;2.6;1.1;;;;;;;;;;;;;
2019/07/10 12:28:25;;;;;;;1.8;1.1;;;;;;;;;;;;;
2019/07/10 12:30:50;;;;;;;3.6;1.1;;;;;;;;;;;;;
2019/07/10 12:33:15;;;;;;;4.5;1.4;;;;;;;;;;;;;
2019/07/10 12:35:40;;;;;;;3.2;0.9;;;;;;;;;;;;;
2019/07/10 12:38:05;;;;;;;2.8;1.1;;;;;;;;;;;;;
2019/07/10 12:40:30;;;;;;;4.5;1.1;;;;;;;;;;;;;
2019/07/10 12:42:56;;;;;;;2.8;1.2;;;;;;;;;;;;;
2019/07/10 12:45:21;;;;;;;3.8;1.1;;;;;;;;;;;;;
2019/07/10 12:47:46;;;;;;;2.5;1;;;;;;;;;;;;;
2019/07/10 12:50:11;;;;;;;3.2;1.1;;;;;;;;;;;;;
2019/07/10 12:52:36;;;;;;;2.6;1.2;;;;;;;;;;;;;
2019/07/10 12:55:01;;;;;;;3.1;1.2;;;;;;;;;;;;;
2019/07/10 12:57:26;;;;;;;3.5;1.1;;;;;;;;;;;;;
2019/07/10 12:59:51;;;;;;;1.6;1;;;;;;;;;;;;;
2019/07/10 13:02:17;;;;;;;3.8;1.1;;;;;;;;;;;;;
2019/07/10 13:04:42;;;;;;;2.7;0.9;;;;;;;;;;;;;
2019/07/10 13:07:07;;;;;;;3.7;1;;;;;;;;;;;;;
2019/07/10 13:09:32;;;;;;;4.1;1.2;;;;;;;;;;;;;
2019/07/10 13:11:57;;;;;;;2.3;1;;;;;;;;;;;;;
2019/07/10 13:14:22;;;;;;;2.5;1.1;;;;;;;;;;;;;
2019/07/10 13:16:47;;;;;;;2.8;1;;;;;;;;;;;;;
2019/07/10 13:19:12;;;;;;;3.9;1.1;;;;;;;;;;;;;
2019/07/10 13:21:37;;;;;;;3.5;1.1;;;;;;;;;;;;;
2019/07/10 13:24:02;;;;;;;3.2;1;;;;;;;;;;;;;
2019/07/10 13:26:27;;;;;;;4.1;1;;;;;;;;;;;;;
2019/07/10 13:28:52;;;;;;;6;1.1;;;;;;;;;;;;;
2019/07/10 13:31:18;;;;;;;4;1.2;;;;;;;;;;;;;
2019/07/10 13:33:43;;;;;;;4.1;1.1;;;;;;;;;;;;;
2019/07/10 13:36:08;;;;;;;2.9;1.1;;;;;;;;;;;;;
2019/07/10 13:38:33;;;;;;;4;1.4;;;;;;;;;;;;;
2019/07/10 13:40:58;;;;;;;4;1.3;;;;;;;;;;;;;
2019/07/10 13:43:23;;;;;;;2.8;0.9;;;;;;;;;;;;;
2019/07/10 13:45:48;;;;;;;3.6;1.3;;;;;;;;;;;;;
2019/07/10 13:48:13;;;;;;;5.1;1.2;;;;;;;;;;;;;
2019/07/10 13:50:38;;;;;;;3.8;1.2;;;;;;;;;;;;;
2019/07/10 13:53:03;;;;;;;3.4;1.2;;;;;;;;;;;;;
2019/07/10 13:55:28;;;;;;;3.6;1.1;;;;;;;;;;;;;
2019/07/10 13:57:54;;;;;;;3.2;1.3;;;;;;;;;;;;;
2019/07/10 14:00:19;;;;;;;3.9;1.1;;;;;;;;;;;;;
2019/07/10 14:02:44;;;;;;;4.5;1.3;;;;;;;;;;;;;
2019/07/10 14:05:09;;;;;;;3.1;0.9;;;;;;;;;;;;;
2019/07/10 14:07:34;;;;;;;4.4;1;;;;;;;;;;;;;
2019/07/10 14:09:59;;;;;;;2.3;1;;;;;;;;;;;;;
2019/07/10 14:12:24;;;;;;;2.5;1;;;;;;;;;;;;;
2019/07/10 14:14:49;;;;;;;4.9;1.1;;;;;;;;;;;;;
2019/07/10 14:17:14;;;;;;;4.5;1.1;;;;;;;;;;;;;
2019/07/10 14:19:39;;;;;;;4.7;1.1;;;;;;;;;;;;;
2019/07/10 14:22:04;;;;;;;3.5;0.9;;;;;;;;;;;;;
2019/07/10 14:24:30;;;;;;;3.5;0.9;;;;;;;;;;;;;
2019/07/10 14:26:55;;;;;;;3.1;1.1;;;;;;;;;;;;;
2019/07/10 14:29:20;;;;;;;3.1;0.8;;;;;;;;;;;;;
2019/07/10 14:31:45;;;;;;;3.4;0.9;;;;;;;;;;;;;
2019/07/10 14:34:10;;;;;;;3.2;1.4;;;;;;;;;;;;;
2019/07/10 14:36:35;;;;;;;3.4;1.1;;;;;;;;;;;;;
2019/07/10 14:39:00;;;;;;;2.2;1.1;;;;;;;;;;;;;
2019/07/10 14:41:25;;;;;;;3.7;1;;;;;;;;;;;;;
2019/07/10 14:43:50;;;;;;;2.5;1;;;;;;;;;;;;;
2019/07/10 14:46:15;;;;;;;2;0.9;;;;;;;;;;;;;
2019/07/10 14:48:40;;;;;;;2.6;0.8;;;;;;;;;;;;;
2019/07/10 14:51:05;;;;;;;3.1;0.9;;;;;;;;;;;;;
2019/07/10 14:53:30;;;;;;;2.5;0.9;;;;;;;;;;;;;
2019/07/10 14:55:56;;;;;;;4.1;1.2;;;;;;;;;;;;;
2019/07/10 14:58:21;;;;;;;2.8;1.3;;;;;;;;;;;;;
2019/07/10 15:00:46;;;;;;;2.8;1.1;;;;;;;;;;;;;
2019/07/10 15:03:11;;;;;;;2.7;0.9;;;;;;;;;;;;;
2019/07/10 15:05:36;;;;;;;2.6;1;;;;;;;;;;;;;
2019/07/10 15:08:01;;;;;;;1.3;0.8;;;;;;;;;;;;;
2019/07/10 15:10:26;;;;;;;2.4;0.8;;;;;;;;;;;;;
2019/07/10 15:12:51;;;;;;;3.7;0.9;;;;;;;;;;;;;
2019/07/10 15:15:16;;;;;;;3;1;;;;;;;;;;;;;
2019/07/10 15:17:41;;;;;;;2.1;1;;;;;;;;;;;;;
2019/07/10 15:20:07;;;;;;;3;1.2;;;;;;;;;;;;;
2019/07/10 15:22:32;;;;;;;4.3;1;;;;;;;;;;;;;
2019/07/10 15:24:57;;;;;;;2.1;1.1;;;;;;;;;;;;;
2019/07/10 15:27:22;;;;;;;3.4;1;;;;;;;;;;;;;
2019/07/10 15:29:47;;;;;;;1.8;1;;;;;;;;;;;;;
2019/07/10 15:32:12;;;;;;;1.7;0.7;;;;;;;;;;;;;
2019/07/10 15:34:37;;;;;;;2.4;0.8;;;;;;;;;;;;;
2019/07/10 15:37:02;;;;;;;1.3;0.7;;;;;;;;;;;;;
2019/07/10 15:39:27;;;;;;;3.3;0.9;;;;;;;;;;;;;
2019/07/10 15:41:53;;;;;;;1.4;0.8;;;;;;;;;;;;;
2019/07/10 15:44:18;;;;;;;2;0.7;;;;;;;;;;;;;
2019/07/10 15:46:43;;;;;;;2.1;0.8;;;;;;;;;;;;;
2019/07/10 15:49:08;;;;;;;2.6;0.8;;;;;;;;;;;;;
2019/07/10 15:51:33;;;;;;;1.9;0.8;;;;;;;;;;;;;
2019/07/10 15:53:58;;;;;;;4.3;0.9;;;;;;;;;;;;;
2019/07/10 15:56:23;;;;;;;3.6;1;;;;;;;;;;;;;
2019/07/10 15:58:48;;;;;;;2.3;1;;;;;;;;;;;;;
2019/07/10 16:01:13;;;;;;;3.4;0.9;;;;;;;;;;;;;
2019/07/10 16:03:38;;;;;;;5.2;1.1;;;;;;;;;;;;;
2019/07/10 16:06:03;;;;;;;3.7;1;;;;;;;;;;;;;
2019/07/10 16:08:28;;;;;;;2.5;1;;;;;;;;;;;;;
2019/07/10 16:10:53;;;;;;;3.3;0.9;;;;;;;;;;;;;
2019/07/10 16:13:19;;;;;;;3.5;1;;;;;;;;;;;;;
2019/07/10 16:15:44;;;;;;;2.4;0.7;;;;;;;;;;;;;
2019/07/10 16:18:09;;;;;;;5;1;;;;;;;;;;;;;
2019/07/10 16:20:34;;;;;;;1.7;0.8;;;;;;;;;;;;;
2019/07/10 16:22:59;;;;;;;1.7;0.8;;;;;;;;;;;;;
2019/07/10 16:25:24;;;;;;;2.5;1.1;;;;;;;;;;;;;
2019/07/10 16:27:49;;;;;;;1.8;0.8;;;;;;;;;;;;;
2019/07/10 16:30:14;;;;;;;3.8;1;;;;;;;;;;;;;
2019/07/10 16:32:39;;;;;;;2.8;0.8;;;;;;;;;;;;;
2019/07/10 16:35:04;;;;;;;1.8;0.8;;;;;;;;;;;;;
2019/07/10 16:37:29;;;;;;;2.2;0.8;;;;;;;;;;;;;
2019/07/10 16:39:55;;;;;;;4.3;1;;;;;;;;;;;;;
2019/07/10 16:42:20;;;;;;;3.8;1;;;;;;;;;;;;;
2019/07/10 16:44:45;;;;;;;2.8;0.9;;;;;;;;;;;;;
2019/07/10 16:47:10;;;;;;;4.9;0.9;;;;;;;;;;;;;
2019/07/10 16:49:35;;;;;;;3.6;1;;;;;;;;;;;;;
2019/07/10 16:52:00;;;;;;;3.5;0.9;;;;;;;;;;;;;
2019/07/10 16:54:25;;;;;;;2.2;0.9;;;;;;;;;;;;;
2019/07/10 16:56:50;;;;;;;4.4;1.1;;;;;;;;;;;;;
2019/07/10 16:59:15;;;;;;;3.6;0.9;;;;;;;;;;;;;
2019/07/10 17:01:40;;;;;;;3.2;1;;;;;;;;;;;;;
2019/07/10 17:04:06;;;;;;;4.3;1;;;;;;;;;;;;;
2019/07/10 17:06:31;;;;;;;3;1;;;;;;;;;;;;;
2019/07/10 17:08:56;;;;;;;2.5;1;;;;;;;;;;;;;
2019/07/10 17:11:21;;;;;;;2.9;1.1;;;;;;;;;;;;;
2019/07/10 17:13:46;;;;;;;3.5;0.9;;;;;;;;;;;;;
2019/07/10 17:16:11;;;;;;;3.1;1.2;;;;;;;;;;;;;
2019/07/10 17:18:36;;;;;;;3.5;1.4;;;;;;;;;;;;;
2019/07/10 17:21:01;;;;;;;3;1;;;;;;;;;;;;;
2019/07/10 17:23:26;;;;;;;3.8;1;;;;;;;;;;;;;
2019/07/10 17:25:51;;;;;;;1.7;0.8;;;;;;;;;;;;;
2019/07/10 17:28:17;;;;;;;2.4;0.8;;;;;;;;;;;;;
2019/07/10 17:30:42;;;;;;;2.9;1.1;;;;;;;;;;;;;
2019/07/10 17:33:07;;;;;;;2.7;1;;;;;;;;;;;;;
2019/07/10 17:35:32;;;;;;;3;0.9;;;;;;;;;;;;;
2019/07/10 17:37:57;;;;;;;2.1;0.9;;;;;;;;;;;;;
2019/07/10 17:40:22;;;;;;;2.6;0.9;;;;;;;;;;;;;
2019/07/10 17:42:47;;;;;;;2.8;1;;;;;;;;;;;;;
2019/07/10 17:45:12;;;;;;;1.5;0.7;;;;;;;;;;;;;
2019/07/10 17:47:37;;;;;;;2.8;0.9;;;;;;;;;;;;;
2019/07/10 17:50:02;;;;;;;3.4;0.9;;;;;;;;;;;;;
2019/07/10 17:52:27;;;;;;;4.6;1.1;;;;;;;;;;;;;
2019/07/10 17:54:52;;;;;;;3;0.8;;;;;;;;;;;;;
2019/07/10 17:57:17;;;;;;;2.4;0.9;;;;;;;;;;;;;
2019/07/10 17:59:43;;;;;;;3.2;0.8;;;;;;;;;;;;;
2019/07/10 18:02:08;;;;;;;1.6;0.8;;;;;;;;;;;;;
2019/07/10 18:04:33;;;;;;;6.2;1.1;;;;;;;;;;;;;
2019/07/10 18:06:58;;;;;;;2.7;1;;;;;;;;;;;;;
2019/07/10 18:09:23;;;;;;;2.3;0.9;;;;;;;;;;;;;
2019/07/10 18:11:48;;;;;;;2.7;0.9;;;;;;;;;;;;;
2019/07/10 18:14:13;;;;;;;2.7;1;;;;;;;;;;;;;
2019/07/10 18:16:38;;;;;;;3.7;0.9;;;;;;;;;;;;;
2019/07/10 18:19:03;;;;;;;3.7;1;;;;;;;;;;;;;
2019/07/10 18:21:28;;;;;;;1.4;0.8;;;;;;;;;;;;;
2019/07/10 18:23:54;;;;;;;2.5;0.9;;;;;;;;;;;;;
2019/07/10 18:26:19;;;;;;;3;1;;;;;;;;;;;;;
2019/07/10 18:28:44;;;;;;;3;1.1;;;;;;;;;;;;;
2019/07/10 18:31:09;;;;;;;5;1.1;;;;;;;;;;;;;
2019/07/10 18:33:34;;;;;;;2.5;0.9;;;;;;;;;;;;;
2019/07/10 18:35:59;;;;;;;4.2;1;;;;;;;;;;;;;
2019/07/10 18:38:24;;;;;;;1.7;1;;;;;;;;;;;;;
2019/07/10 18:40:49;;;;;;;2.9;1.1;;;;;;;;;;;;;
2019/07/10 18:43:14;;;;;;;2;1;;;;;;;;;;;;;
2019/07/10 18:45:40;;;;;;;2.9;1.1;;;;;;;;;;;;;
2019/07/10 18:48:05;;;;;;;3.9;1.3;;;;;;;;;;;;;
2019/07/10 18:50:30;;;;;;;3.2;1.3;;;;;;;;;;;;;
2019/07/10 18:52:55;;;;;;;3.4;1.1;;;;;;;;;;;;;
2019/07/10 18:55:20;;;;;;;3.5;1.1;;;;;;;;;;;;;
2019/07/10 18:57:45;;;;;;;4.2;1.1;;;;;;;;;;;;;
2019/07/10 19:00:10;;;;;;;3.7;1.1;;;;;;;;;;;;;
2019/07/10 19:02:36;;;;;;;2.4;0.9;;;;;;;;;;;;;
2019/07/10 19:05:01;;;;;;;2.2;1.2;;;;;;;;;;;;;
2019/07/10 19:07:26;;;;;;;2.9;1.2;;;;;;;;;;;;;
2019/07/10 19:09:51;;;;;;;4.5;1.5;;;;;;;;;;;;;
2019/07/10 19:12:16;;;;;;;3;1.6;;;;;;;;;;;;;
2019/07/10 19:14:41;;;;;;;2.6;1.4;;;;;;;;;;;;;
2019/07/10 19:17:06;;;;;;;4.3;1.6;;;;;;;;;;;;;
2019/07/10 19:19:31;;;;;;;4.1;1.7;;;;;;;;;;;;;
2019/07/10 19:21:56;;;;;;;5.5;1.7;;;;;;;;;;;;;
2019/07/10 19:24:21;;;;;;;2.6;1.4;;;;;;;;;;;;;
2019/07/10 19:26:46;;;;;;;2.7;1.7;;;;;;;;;;;;;
2019/07/10 19:29:12;;;;;;;3.9;1.5;;;;;;;;;;;;;
2019/07/10 19:31:37;;;;;;;4.3;1.3;;;;;;;;;;;;;
2019/07/10 19:34:02;;;;;;;3;1.6;;;;;;;;;;;;;
2019/07/10 19:36:27;;;;;;;4.9;1.6;;;;;;;;;;;;;
2019/07/10 19:38:52;;;;;;;3.8;1.6;;;;;;;;;;;;;
2019/07/10 19:41:17;;;;;;;2.5;1.3;;;;;;;;;;;;;
2019/07/10 19:43:42;;;;;;;5;1.7;;;;;;;;;;;;;
2019/07/10 19:46:07;;;;;;;4.3;1.6;;;;;;;;;;;;;
2019/07/10 19:48:41;;;;;;;2.1;1.1;;;;;;;;;;;;;
2019/07/10 19:50:57;;;;;;;4.3;1.5;;;;;;;;;;;;;
2019/07/10 19:53:22;;;;;;;4.1;1.3;;;;;;;;;;;;;
2019/07/10 19:55:48;;;;;;;3.4;1.6;;;;;;;;;;;;;
2019/07/10 19:58:13;;;;;;;1.9;1.5;;;;;;;;;;;;;
2019/07/10 20:00:38;;;;;;;3.8;1.7;;;;;;;;;;;;;
2019/07/10 20:03:03;;;;;;;2.8;1.7;;;;;;;;;;;;;
2019/07/10 20:05:28;;;;;;;3.6;1.7;;;;;;;;;;;;;
2019/07/10 20:07:53;;;;;;;4.2;2.3;;;;;;;;;;;;;
2019/07/10 20:10:18;;;;;;;5.5;2.6;;;;;;;;;;;;;
2019/07/10 20:12:43;;;;;;;4.6;2.4;;;;;;;;;;;;;
2019/07/10 20:15:08;;;;;;;4;2;;;;;;;;;;;;;
2019/07/10 20:17:34;;;;;;;4.5;2.3;;;;;;;;;;;;;
2019/07/10 20:19:59;;;;;;;4.8;2.4;;;;;;;;;;;;;
2019/07/10 20:22:24;;;;;;;4.2;2.4;;;;;;;;;;;;;
2019/07/10 20:24:49;;;;;;;4.4;2.4;;;;;;;;;;;;;
2019/07/10 20:27:14;;;;;;;4.2;2.3;;;;;;;;;;;;;
2019/07/10 20:29:39;;;;;;;4.1;2.1;;;;;;;;;;;;;
2019/07/10 20:32:04;;;;;;;3.5;2;;;;;;;;;;;;;
2019/07/10 20:34:29;;;;;;;4.9;2.6;;;;;;;;;;;;;
2019/07/10 20:36:54;;;;;;;4.1;2.3;;;;;;;;;;;;;
2019/07/10 20:39:19;;;;;;;3.6;2;;;;;;;;;;;;;